SBOSBO PMO / LICJ
Speedbird OnlineSpeedbird Online PMO / LICJ

Falcone–Borsellino Airport
20:37 23.6°C

Location Palermo, Italy
Latitude: 38.175999
Longitude: 13.091
Web Airport Website | Wikipedia
Altitude 20 Meter / 65 Feet
Distance 1,794 KM / 1,115 Miles
from London.
Time Zone UTC +2 hours (Europe/Rome)
Codes IATA: PMO
ICAO: LICJ
Currency £1 equals EUR 1.12
Runways
RunwayLength (m)Surface
022074Asphalt
073326Asphalt
202074Asphalt
253326Asphalt
Radio
TypeDescriptionFrequency
APPAPP120.2
GNDRAISI GND121.625
TWRRAISI TWR119.05
Live ATC
METAR LICJ 241820Z 16011KT CAVOK 24/14 Q1016
TAF TAF LICJ 241700Z 2418/2518 20015KT CAVOK TEMPO 2501/2518 22020G30KT
Weather As Of 24 Sep 2022 20:37
Description Clear sky
Wind 21 km/h from South (189°)
Cloud Cover 0%
Precipitation Rain: none, Snow: none
Sunrise 06:56
Sunset 19:02
Lounges Sala VIP GESAP (Temporarily Closed), Main Terminal
Rotations During the last 90 days there were
38 flights from LHR
37 flights to LHR


© 2017-2022 Speedbird Online